sensor_id;sensor_type;location;lat;lon;timestamp;P1;P2;P0
47079;PMS5003;33067;49.296;14.470;2023-03-23T00:01:38;37;37;
47079;PMS5003;33067;49.296;14.470;2023-03-23T00:04:03;41;40;
47079;PMS5003;33067;49.296;14.470;2023-03-23T00:06:28;41;40;
47079;PMS5003;33067;49.296;14.470;2023-03-23T00:08:54;36;33;
47079;PMS5003;33067;49.296;14.470;2023-03-23T00:11:19;35;30;
47079;PMS5003;33067;49.296;14.470;2023-03-23T00:13:45;34;33;
47079;PMS5003;33067;49.296;14.470;2023-03-23T00:16:10;38;34;
47079;PMS5003;33067;49.296;14.470;2023-03-23T00:18:35;36;33;
47079;PMS5003;33067;49.296;14.470;2023-03-23T00:21:01;34;33;
47079;PMS5003;33067;49.296;14.470;2023-03-23T00:23:26;43;37;
47079;PMS5003;33067;49.296;14.470;2023-03-23T00:25:52;39;37;
47079;PMS5003;33067;49.296;14.470;2023-03-23T00:28:17;39;38;
47079;PMS5003;33067;49.296;14.470;2023-03-23T00:30:43;32;32;
47079;PMS5003;33067;49.296;14.470;2023-03-23T00:33:08;37;33;
47079;PMS5003;33067;49.296;14.470;2023-03-23T00:35:34;42;39;
47079;PMS5003;33067;49.296;14.470;2023-03-23T00:37:59;41;38;
47079;PMS5003;33067;49.296;14.470;2023-03-23T00:40:24;32;31;
47079;PMS5003;33067;49.296;14.470;2023-03-23T00:42:49;40;33;
47079;PMS5003;33067;49.296;14.470;2023-03-23T00:45:14;40;35;
47079;PMS5003;33067;49.296;14.470;2023-03-23T00:47:40;31;31;
47079;PMS5003;33067;49.296;14.470;2023-03-23T00:50:06;52;46;
47079;PMS5003;33067;49.296;14.470;2023-03-23T00:52:31;27;27;
47079;PMS5003;33067;49.296;14.470;2023-03-23T00:54:56;39;33;
47079;PMS5003;33067;49.296;14.470;2023-03-23T00:57:22;41;39;
47079;PMS5003;33067;49.296;14.470;2023-03-23T00:59:47;42;38;
47079;PMS5003;33067;49.296;14.470;2023-03-23T01:02:13;44;44;
47079;PMS5003;33067;49.296;14.470;2023-03-23T01:04:38;41;36;
47079;PMS5003;33067;49.296;14.470;2023-03-23T01:07:04;39;37;
47079;PMS5003;33067;49.296;14.470;2023-03-23T01:09:30;39;39;
47079;PMS5003;33067;49.296;14.470;2023-03-23T01:11:55;39;35;
47079;PMS5003;33067;49.296;14.470;2023-03-23T01:14:20;31;31;
47079;PMS5003;33067;49.296;14.470;2023-03-23T01:16:46;69;67;
47079;PMS5003;33067;49.296;14.470;2023-03-23T01:19:11;53;53;
47079;PMS5003;33067;49.296;14.470;2023-03-23T01:21:36;39;36;
47079;PMS5003;33067;49.296;14.470;2023-03-23T01:24:02;43;40;
47079;PMS5003;33067;49.296;14.470;2023-03-23T01:26:28;43;43;
47079;PMS5003;33067;49.296;14.470;2023-03-23T01:28:53;84;79;
47079;PMS5003;33067;49.296;14.470;2023-03-23T01:31:19;66;59;
47079;PMS5003;33067;49.296;14.470;2023-03-23T01:33:44;54;48;
47079;PMS5003;33067;49.296;14.470;2023-03-23T01:36:10;50;49;
47079;PMS5003;33067;49.296;14.470;2023-03-23T01:38:35;43;38;
47079;PMS5003;33067;49.296;14.470;2023-03-23T01:41:01;29;28;
47079;PMS5003;33067;49.296;14.470;2023-03-23T01:43:26;51;50;
47079;PMS5003;33067;49.296;14.470;2023-03-23T01:45:51;48;44;
47079;PMS5003;33067;49.296;14.470;2023-03-23T01:48:17;29;24;
47079;PMS5003;33067;49.296;14.470;2023-03-23T01:50:44;45;40;
47079;PMS5003;33067;49.296;14.470;2023-03-23T01:53:08;39;35;
47079;PMS5003;33067;49.296;14.470;2023-03-23T01:55:33;45;45;
47079;PMS5003;33067;49.296;14.470;2023-03-23T01:57:58;26;26;
47079;PMS5003;33067;49.296;14.470;2023-03-23T02:00:24;58;54;
47079;PMS5003;33067;49.296;14.470;2023-03-23T02:02:50;69;66;
47079;PMS5003;33067;49.296;14.470;2023-03-23T02:05:17;71;68;
47079;PMS5003;33067;49.296;14.470;2023-03-23T02:07:41;61;61;
47079;PMS5003;33067;49.296;14.470;2023-03-23T02:10:07;71;71;
47079;PMS5003;33067;49.296;14.470;2023-03-23T02:12:32;68;64;
47079;PMS5003;33067;49.296;14.470;2023-03-23T02:14:58;66;58;
47079;PMS5003;33067;49.296;14.470;2023-03-23T02:17:25;59;56;
47079;PMS5003;33067;49.296;14.470;2023-03-23T02:19:57;63;60;
47079;PMS5003;33067;49.296;14.470;2023-03-23T02:27:07;72;68;
47079;PMS5003;33067;49.296;14.470;2023-03-23T02:29:37;52;50;
47079;PMS5003;33067;49.296;14.470;2023-03-23T02:32:02;46;44;
47079;PMS5003;33067;49.296;14.470;2023-03-23T02:34:24;105;102;
47079;PMS5003;33067;49.296;14.470;2023-03-23T02:36:50;38;37;
47079;PMS5003;33067;49.296;14.470;2023-03-23T02:39:15;44;42;
47079;PMS5003;33067;49.296;14.470;2023-03-23T02:41:40;60;54;
47079;PMS5003;33067;49.296;14.470;2023-03-23T02:44:05;67;66;
47079;PMS5003;33067;49.296;14.470;2023-03-23T02:46:30;38;31;
47079;PMS5003;33067;49.296;14.470;2023-03-23T02:48:56;74;68;
47079;PMS5003;33067;49.296;14.470;2023-03-23T02:51:22;55;50;
47079;PMS5003;33067;49.296;14.470;2023-03-23T02:53:48;57;57;
47079;PMS5003;33067;49.296;14.470;2023-03-23T02:56:13;27;26;
47079;PMS5003;33067;49.296;14.470;2023-03-23T02:58:38;31;30;
47079;PMS5003;33067;49.296;14.470;2023-03-23T03:01:14;34;34;
47079;PMS5003;33067;49.296;14.470;2023-03-23T03:03:28;37;35;
47079;PMS5003;33067;49.296;14.470;2023-03-23T03:05:56;40;35;
47079;PMS5003;33067;49.296;14.470;2023-03-23T03:08:21;27;26;
47079;PMS5003;33067;49.296;14.470;2023-03-23T03:13:01;28;28;
47079;PMS5003;33067;49.296;14.470;2023-03-23T03:15:25;38;33;
47079;PMS5003;33067;49.296;14.470;2023-03-23T03:17:51;29;27;
47079;PMS5003;33067;49.296;14.470;2023-03-23T03:20:14;25;25;
47079;PMS5003;33067;49.296;14.470;2023-03-23T03:22:39;30;30;
47079;PMS5003;33067;49.296;14.470;2023-03-23T03:25:05;34;33;
47079;PMS5003;33067;49.296;14.470;2023-03-23T03:27:29;33;30;
47079;PMS5003;33067;49.296;14.470;2023-03-23T03:29:55;28;27;
47079;PMS5003;33067;49.296;14.470;2023-03-23T03:32:21;27;25;
47079;PMS5003;33067;49.296;14.470;2023-03-23T03:34:45;36;35;
47079;PMS5003;33067;49.296;14.470;2023-03-23T03:37:11;36;35;
47079;PMS5003;33067;49.296;14.470;2023-03-23T03:39:36;34;31;
47079;PMS5003;33067;49.296;14.470;2023-03-23T03:42:02;40;37;
47079;PMS5003;33067;49.296;14.470;2023-03-23T03:44:27;36;33;
47079;PMS5003;33067;49.296;14.470;2023-03-23T03:46:53;41;39;
47079;PMS5003;33067;49.296;14.470;2023-03-23T03:49:19;35;33;
47079;PMS5003;33067;49.296;14.470;2023-03-23T03:51:44;40;39;
47079;PMS5003;33067;49.296;14.470;2023-03-23T03:54:10;28;28;
47079;PMS5003;33067;49.296;14.470;2023-03-23T03:56:35;37;32;
47079;PMS5003;33067;49.296;14.470;2023-03-23T03:59:01;35;34;
47079;PMS5003;33067;49.296;14.470;2023-03-23T04:01:26;32;30;
47079;PMS5003;33067;49.296;14.470;2023-03-23T04:03:52;31;26;
47079;PMS5003;33067;49.296;14.470;2023-03-23T04:06:17;29;25;
47079;PMS5003;33067;49.296;14.470;2023-03-23T04:08:43;25;25;
47079;PMS5003;33067;49.296;14.470;2023-03-23T04:11:09;24;22;
47079;PMS5003;33067;49.296;14.470;2023-03-23T04:13:34;23;23;
47079;PMS5003;33067;49.296;14.470;2023-03-23T04:15:59;26;23;
47079;PMS5003;33067;49.296;14.470;2023-03-23T04:18:25;24;24;
47079;PMS5003;33067;49.296;14.470;2023-03-23T04:20:50;34;30;
47079;PMS5003;33067;49.296;14.470;2023-03-23T04:23:15;28;28;
47079;PMS5003;33067;49.296;14.470;2023-03-23T04:25:41;30;26;
47079;PMS5003;33067;49.296;14.470;2023-03-23T04:28:06;28;24;
47079;PMS5003;33067;49.296;14.470;2023-03-23T04:30:31;29;27;
47079;PMS5003;33067;49.296;14.470;2023-03-23T04:32:57;22;21;
47079;PMS5003;33067;49.296;14.470;2023-03-23T04:35:23;24;23;
47079;PMS5003;33067;49.296;14.470;2023-03-23T04:37:48;23;22;
47079;PMS5003;33067;49.296;14.470;2023-03-23T04:40:14;31;29;
47079;PMS5003;33067;49.296;14.470;2023-03-23T04:42:40;47;41;
47079;PMS5003;33067;49.296;14.470;2023-03-23T04:45:05;44;40;
47079;PMS5003;33067;49.296;14.470;2023-03-23T04:47:31;34;31;
47079;PMS5003;33067;49.296;14.470;2023-03-23T04:49:56;30;30;
47079;PMS5003;33067;49.296;14.470;2023-03-23T04:52:21;44;38;
47079;PMS5003;33067;49.296;14.470;2023-03-23T04:54:46;36;34;
47079;PMS5003;33067;49.296;14.470;2023-03-23T04:57:12;32;32;
47079;PMS5003;33067;49.296;14.470;2023-03-23T04:59:37;29;29;
47079;PMS5003;33067;49.296;14.470;2023-03-23T05:02:02;40;39;
47079;PMS5003;33067;49.296;14.470;2023-03-23T05:04:28;31;27;
47079;PMS5003;33067;49.296;14.470;2023-03-23T05:06:53;35;35;
47079;PMS5003;33067;49.296;14.470;2023-03-23T05:09:19;32;28;
47079;PMS5003;33067;49.296;14.470;2023-03-23T05:11:45;38;33;
47079;PMS5003;33067;49.296;14.470;2023-03-23T05:14:10;31;30;
47079;PMS5003;33067;49.296;14.470;2023-03-23T05:16:35;28;25;
47079;PMS5003;33067;49.296;14.470;2023-03-23T05:19:01;32;31;
47079;PMS5003;33067;49.296;14.470;2023-03-23T05:21:26;29;27;
47079;PMS5003;33067;49.296;14.470;2023-03-23T05:23:52;35;33;
47079;PMS5003;33067;49.296;14.470;2023-03-23T05:26:17;34;33;
47079;PMS5003;33067;49.296;14.470;2023-03-23T05:28:43;37;36;
47079;PMS5003;33067;49.296;14.470;2023-03-23T05:31:08;42;37;
47079;PMS5003;33067;49.296;14.470;2023-03-23T05:33:33;31;28;
47079;PMS5003;33067;49.296;14.470;2023-03-23T05:35:59;27;25;
47079;PMS5003;33067;49.296;14.470;2023-03-23T05:38:24;37;32;
47079;PMS5003;33067;49.296;14.470;2023-03-23T05:40:49;41;37;
47079;PMS5003;33067;49.296;14.470;2023-03-23T05:43:15;29;27;
47079;PMS5003;33067;49.296;14.470;2023-03-23T05:45:40;22;22;
47079;PMS5003;33067;49.296;14.470;2023-03-23T05:48:05;26;24;
47079;PMS5003;33067;49.296;14.470;2023-03-23T05:50:31;28;26;
47079;PMS5003;33067;49.296;14.470;2023-03-23T05:52:57;36;32;
47079;PMS5003;33067;49.296;14.470;2023-03-23T05:55:22;25;25;
47079;PMS5003;33067;49.296;14.470;2023-03-23T05:57:48;24;23;
47079;PMS5003;33067;49.296;14.470;2023-03-23T06:00:14;26;24;
47079;PMS5003;33067;49.296;14.470;2023-03-23T06:02:40;25;25;
47079;PMS5003;33067;49.296;14.470;2023-03-23T06:05:05;28;27;
47079;PMS5003;33067;49.296;14.470;2023-03-23T06:07:30;26;26;
47079;PMS5003;33067;49.296;14.470;2023-03-23T06:09:55;32;32;
47079;PMS5003;33067;49.296;14.470;2023-03-23T06:12:20;39;37;
47079;PMS5003;33067;49.296;14.470;2023-03-23T06:14:45;24;24;
47079;PMS5003;33067;49.296;14.470;2023-03-23T06:17:11;34;33;
47079;PMS5003;33067;49.296;14.470;2023-03-23T06:19:37;29;28;
47079;PMS5003;33067;49.296;14.470;2023-03-23T06:22:02;32;27;
47079;PMS5003;33067;49.296;14.470;2023-03-23T06:24:27;32;28;
47079;PMS5003;33067;49.296;14.470;2023-03-23T06:26:52;40;36;
47079;PMS5003;33067;49.296;14.470;2023-03-23T06:29:18;35;34;
47079;PMS5003;33067;49.296;14.470;2023-03-23T06:31:44;34;34;
47079;PMS5003;33067;49.296;14.470;2023-03-23T06:34:08;27;25;
47079;PMS5003;33067;49.296;14.470;2023-03-23T06:36:34;32;30;
47079;PMS5003;33067;49.296;14.470;2023-03-23T06:38:59;38;36;
47079;PMS5003;33067;49.296;14.470;2023-03-23T06:41:24;38;33;
47079;PMS5003;33067;49.296;14.470;2023-03-23T06:43:50;69;67;
47079;PMS5003;33067;49.296;14.470;2023-03-23T06:46:15;61;58;
47079;PMS5003;33067;49.296;14.470;2023-03-23T06:48:41;69;63;
47079;PMS5003;33067;49.296;14.470;2023-03-23T06:51:07;56;53;
47079;PMS5003;33067;49.296;14.470;2023-03-23T06:53:32;44;43;
47079;PMS5003;33067;49.296;14.470;2023-03-23T06:55:58;87;74;
47079;PMS5003;33067;49.296;14.470;2023-03-23T06:58:23;84;71;
47079;PMS5003;33067;49.296;14.470;2023-03-23T07:00:52;68;64;
47079;PMS5003;33067;49.296;14.470;2023-03-23T07:03:14;44;40;
47079;PMS5003;33067;49.296;14.470;2023-03-23T07:05:40;84;82;
47079;PMS5003;33067;49.296;14.470;2023-03-23T07:08:06;65;62;
47079;PMS5003;33067;49.296;14.470;2023-03-23T07:10:31;41;41;
47079;PMS5003;33067;49.296;14.470;2023-03-23T07:12:56;59;54;
47079;PMS5003;33067;49.296;14.470;2023-03-23T07:15:21;50;46;
47079;PMS5003;33067;49.296;14.470;2023-03-23T07:17:47;66;65;
47079;PMS5003;33067;49.296;14.470;2023-03-23T07:20:12;56;51;
47079;PMS5003;33067;49.296;14.470;2023-03-23T07:22:38;37;36;
47079;PMS5003;33067;49.296;14.470;2023-03-23T07:25:03;73;70;
47079;PMS5003;33067;49.296;14.470;2023-03-23T07:27:29;38;32;
47079;PMS5003;33067;49.296;14.470;2023-03-23T07:29:54;35;32;
47079;PMS5003;33067;49.296;14.470;2023-03-23T07:32:19;45;45;
47079;PMS5003;33067;49.296;14.470;2023-03-23T07:34:44;51;48;
47079;PMS5003;33067;49.296;14.470;2023-03-23T07:37:10;36;34;
47079;PMS5003;33067;49.296;14.470;2023-03-23T07:39:35;38;36;
47079;PMS5003;33067;49.296;14.470;2023-03-23T07:42:00;34;30;
47079;PMS5003;33067;49.296;14.470;2023-03-23T07:44:26;42;38;
47079;PMS5003;33067;49.296;14.470;2023-03-23T07:46:51;43;41;
47079;PMS5003;33067;49.296;14.470;2023-03-23T07:49:17;37;34;
47079;PMS5003;33067;49.296;14.470;2023-03-23T07:51:42;43;40;
47079;PMS5003;33067;49.296;14.470;2023-03-23T07:54:07;57;57;
47079;PMS5003;33067;49.296;14.470;2023-03-23T07:56:33;126;116;
47079;PMS5003;33067;49.296;14.470;2023-03-23T07:58:58;110;102;
47079;PMS5003;33067;49.296;14.470;2023-03-23T08:01:24;99;91;
47079;PMS5003;33067;49.296;14.470;2023-03-23T08:03:49;68;66;
47079;PMS5003;33067;49.296;14.470;2023-03-23T08:06:14;53;44;
47079;PMS5003;33067;49.296;14.470;2023-03-23T08:08:39;72;62;
47079;PMS5003;33067;49.296;14.470;2023-03-23T08:11:05;69;59;
47079;PMS5003;33067;49.296;14.470;2023-03-23T08:13:31;71;65;
47079;PMS5003;33067;49.296;14.470;2023-03-23T08:15:56;57;47;
47079;PMS5003;33067;49.296;14.470;2023-03-23T08:18:21;56;50;
47079;PMS5003;33067;49.296;14.470;2023-03-23T08:20:47;49;45;
47079;PMS5003;33067;49.296;14.470;2023-03-23T08:23:12;43;41;
47079;PMS5003;33067;49.296;14.470;2023-03-23T08:25:38;45;38;
47079;PMS5003;33067;49.296;14.470;2023-03-23T08:28:03;44;43;
47079;PMS5003;33067;49.296;14.470;2023-03-23T08:30:29;34;33;
47079;PMS5003;33067;49.296;14.470;2023-03-23T08:32:54;28;28;
47079;PMS5003;33067;49.296;14.470;2023-03-23T08:35:20;28;27;
47079;PMS5003;33067;49.296;14.470;2023-03-23T08:37:45;25;25;
47079;PMS5003;33067;49.296;14.470;2023-03-23T08:40:11;31;27;
47079;PMS5003;33067;49.296;14.470;2023-03-23T08:42:36;21;20;
47079;PMS5003;33067;49.296;14.470;2023-03-23T08:45:01;25;24;
47079;PMS5003;33067;49.296;14.470;2023-03-23T08:47:27;22;22;
47079;PMS5003;33067;49.296;14.470;2023-03-23T08:49:52;20;20;
47079;PMS5003;33067;49.296;14.470;2023-03-23T08:52:17;22;21;
47079;PMS5003;33067;49.296;14.470;2023-03-23T08:54:42;21;19;
47079;PMS5003;33067;49.296;14.470;2023-03-23T08:57:08;17;17;
47079;PMS5003;33067;49.296;14.470;2023-03-23T08:59:33;19;15;
47079;PMS5003;33067;49.296;14.470;2023-03-23T09:01:59;20;18;
47079;PMS5003;33067;49.296;14.470;2023-03-23T09:04:24;23;22;
47079;PMS5003;33067;49.296;14.470;2023-03-23T09:06:50;25;23;
47079;PMS5003;33067;49.296;14.470;2023-03-23T09:09:15;12;11;
47079;PMS5003;33067;49.296;14.470;2023-03-23T09:11:40;22;22;
47079;PMS5003;33067;49.296;14.470;2023-03-23T09:14:06;16;14;
47079;PMS5003;33067;49.296;14.470;2023-03-23T09:16:32;14;14;
47079;PMS5003;33067;49.296;14.470;2023-03-23T09:18:56;17;17;
47079;PMS5003;33067;49.296;14.470;2023-03-23T09:21:22;8;7;
47079;PMS5003;33067;49.296;14.470;2023-03-23T09:23:47;11;9;
47079;PMS5003;33067;49.296;14.470;2023-03-23T09:26:12;9;9;
47079;PMS5003;33067;49.296;14.470;2023-03-23T09:28:38;8;8;
47079;PMS5003;33067;49.296;14.470;2023-03-23T09:31:02;14;12;
47079;PMS5003;33067;49.296;14.470;2023-03-23T09:33:28;9;9;
47079;PMS5003;33067;49.296;14.470;2023-03-23T09:35:53;8;7;
47079;PMS5003;33067;49.296;14.470;2023-03-23T09:38:18;12;11;
47079;PMS5003;33067;49.296;14.470;2023-03-23T09:40:45;14;11;
47079;PMS5003;33067;49.296;14.470;2023-03-23T09:43:13;12;12;
47079;PMS5003;33067;49.296;14.470;2023-03-23T09:45:36;8;8;
47079;PMS5003;33067;49.296;14.470;2023-03-23T09:48:05;10;10;
47079;PMS5003;33067;49.296;14.470;2023-03-23T09:50:26;11;11;
47079;PMS5003;33067;49.296;14.470;2023-03-23T09:52:52;11;10;
47079;PMS5003;33067;49.296;14.470;2023-03-23T09:55:15;8;8;
47079;PMS5003;33067;49.296;14.470;2023-03-23T09:57:41;10;10;
47079;PMS5003;33067;49.296;14.470;2023-03-23T10:00:09;37;35;
47079;PMS5003;33067;49.296;14.470;2023-03-23T10:02:33;87;83;
47079;PMS5003;33067;49.296;14.470;2023-03-23T10:04:58;145;139;
47079;PMS5003;33067;49.296;14.470;2023-03-23T10:07:23;94;89;
47079;PMS5003;33067;49.296;14.470;2023-03-23T10:09:49;84;76;
47079;PMS5003;33067;49.296;14.470;2023-03-23T10:12:18;122;121;
47079;PMS5003;33067;49.296;14.470;2023-03-23T10:14:43;31;29;
47079;PMS5003;33067;49.296;14.470;2023-03-23T10:17:07;25;23;
47079;PMS5003;33067;49.296;14.470;2023-03-23T10:19:31;51;50;
47079;PMS5003;33067;49.296;14.470;2023-03-23T10:21:56;21;20;
47079;PMS5003;33067;49.296;14.470;2023-03-23T10:24:21;24;24;
47079;PMS5003;33067;49.296;14.470;2023-03-23T10:26:48;8;8;
47079;PMS5003;33067;49.296;14.470;2023-03-23T10:29:13;18;17;
47079;PMS5003;33067;49.296;14.470;2023-03-23T10:31:37;8;8;
47079;PMS5003;33067;49.296;14.470;2023-03-23T10:34:02;6;6;
47079;PMS5003;33067;49.296;14.470;2023-03-23T10:36:27;12;9;
47079;PMS5003;33067;49.296;14.470;2023-03-23T10:38:53;12;12;
47079;PMS5003;33067;49.296;14.470;2023-03-23T10:41:17;5;5;
47079;PMS5003;33067;49.296;14.470;2023-03-23T10:43:41;11;11;
47079;PMS5003;33067;49.296;14.470;2023-03-23T10:46:11;27;27;
47079;PMS5003;33067;49.296;14.470;2023-03-23T10:48:33;5;5;
47079;PMS5003;33067;49.296;14.470;2023-03-23T10:50:58;9;7;
47079;PMS5003;33067;49.296;14.470;2023-03-23T10:53:23;6;6;
47079;PMS5003;33067;49.296;14.470;2023-03-23T10:55:47;8;6;
47079;PMS5003;33067;49.296;14.470;2023-03-23T10:58:22;8;8;
47079;PMS5003;33067;49.296;14.470;2023-03-23T11:00:40;6;6;
47079;PMS5003;33067;49.296;14.470;2023-03-23T11:03:02;6;6;
47079;PMS5003;33067;49.296;14.470;2023-03-23T11:05:27;14;14;
47079;PMS5003;33067;49.296;14.470;2023-03-23T11:07:53;8;8;
47079;PMS5003;33067;49.296;14.470;2023-03-23T11:10:22;7;7;
47079;PMS5003;33067;49.296;14.470;2023-03-23T11:12:43;7;6;
47079;PMS5003;33067;49.296;14.470;2023-03-23T11:15:20;6;6;
47079;PMS5003;33067;49.296;14.470;2023-03-23T11:17:32;5;5;
47079;PMS5003;33067;49.296;14.470;2023-03-23T11:19:57;8;8;
47079;PMS5003;33067;49.296;14.470;2023-03-23T11:22:24;9;7;
47079;PMS5003;33067;49.296;14.470;2023-03-23T11:24:50;4;4;
47079;PMS5003;33067;49.296;14.470;2023-03-23T11:27:13;4;3;
47079;PMS5003;33067;49.296;14.470;2023-03-23T11:29:42;9;8;
47079;PMS5003;33067;49.296;14.470;2023-03-23T11:32:04;5;5;
47079;PMS5003;33067;49.296;14.470;2023-03-23T11:34:30;5;5;
47079;PMS5003;33067;49.296;14.470;2023-03-23T11:36:55;9;8;
47079;PMS5003;33067;49.296;14.470;2023-03-23T11:39:21;6;6;
47079;PMS5003;33067;49.296;14.470;2023-03-23T11:41:46;8;8;
47079;PMS5003;33067;49.296;14.470;2023-03-23T11:44:11;19;19;
47079;PMS5003;33067;49.296;14.470;2023-03-23T11:46:39;15;15;
47079;PMS5003;33067;49.296;14.470;2023-03-23T11:49:03;7;7;
47079;PMS5003;33067;49.296;14.470;2023-03-23T11:51:30;24;24;
47079;PMS5003;33067;49.296;14.470;2023-03-23T11:53:55;194;186;
47079;PMS5003;33067;49.296;14.470;2023-03-23T11:56:21;23;23;
47079;PMS5003;33067;49.296;14.470;2023-03-23T11:58:44;7;7;
47079;PMS5003;33067;49.296;14.470;2023-03-23T12:01:12;16;16;
47079;PMS5003;33067;49.296;14.470;2023-03-23T12:03:41;10;9;
47079;PMS5003;33067;49.296;14.470;2023-03-23T12:06:01;9;9;
47079;PMS5003;33067;49.296;14.470;2023-03-23T12:08:31;6;6;
47079;PMS5003;33067;49.296;14.470;2023-03-23T12:10:53;10;10;
47079;PMS5003;33067;49.296;14.470;2023-03-23T12:13:21;2;2;
47079;PMS5003;33067;49.296;14.470;2023-03-23T12:15:45;8;5;
47079;PMS5003;33067;49.296;14.470;2023-03-23T12:18:15;7;7;
47079;PMS5003;33067;49.296;14.470;2023-03-23T12:20:39;9;9;
47079;PMS5003;33067;49.296;14.470;2023-03-23T12:23:05;6;6;
47079;PMS5003;33067;49.296;14.470;2023-03-23T12:27:53;5;4;
47079;PMS5003;33067;49.296;14.470;2023-03-23T12:30:22;5;5;
47079;PMS5003;33067;49.296;14.470;2023-03-23T12:32:47;5;4;
47079;PMS5003;33067;49.296;14.470;2023-03-23T12:35:14;5;3;
47079;PMS5003;33067;49.296;14.470;2023-03-23T12:37:41;5;5;
47079;PMS5003;33067;49.296;14.470;2023-03-23T12:40:07;9;9;
47079;PMS5003;33067;49.296;14.470;2023-03-23T12:42:30;27;23;
47079;PMS5003;33067;49.296;14.470;2023-03-23T12:44:53;24;22;
47079;PMS5003;33067;49.296;14.470;2023-03-23T12:47:23;33;33;
47079;PMS5003;33067;49.296;14.470;2023-03-23T12:49:45;15;15;
47079;PMS5003;33067;49.296;14.470;2023-03-23T12:52:11;20;20;
47079;PMS5003;33067;49.296;14.470;2023-03-23T12:54:36;7;7;
47079;PMS5003;33067;49.296;14.470;2023-03-23T12:57:02;5;5;
47079;PMS5003;33067;49.296;14.470;2023-03-23T12:59:28;4;4;
47079;PMS5003;33067;49.296;14.470;2023-03-23T13:01:54;6;6;
47079;PMS5003;33067;49.296;14.470;2023-03-23T13:04:18;8;8;
47079;PMS5003;33067;49.296;14.470;2023-03-23T13:06:42;7;7;
47079;PMS5003;33067;49.296;14.470;2023-03-23T13:09:10;18;18;
47079;PMS5003;33067;49.296;14.470;2023-03-23T13:11:33;16;16;
47079;PMS5003;33067;49.296;14.470;2023-03-23T13:14:02;56;55;
47079;PMS5003;33067;49.296;14.470;2023-03-23T13:16:28;58;53;
47079;PMS5003;33067;49.296;14.470;2023-03-23T13:18:54;52;48;
47079;PMS5003;33067;49.296;14.470;2023-03-23T13:21:17;28;28;
47079;PMS5003;33067;49.296;14.470;2023-03-23T13:23:41;12;10;
47079;PMS5003;33067;49.296;14.470;2023-03-23T13:26:06;3;3;
47079;PMS5003;33067;49.296;14.470;2023-03-23T13:28:31;4;3;
47079;PMS5003;33067;49.296;14.470;2023-03-23T13:30:56;5;5;
47079;PMS5003;33067;49.296;14.470;2023-03-23T13:33:20;5;5;
47079;PMS5003;33067;49.296;14.470;2023-03-23T13:35:45;5;5;
47079;PMS5003;33067;49.296;14.470;2023-03-23T13:38:12;10;10;
47079;PMS5003;33067;49.296;14.470;2023-03-23T13:40:35;5;5;
47079;PMS5003;33067;49.296;14.470;2023-03-23T13:43:00;4;4;
47079;PMS5003;33067;49.296;14.470;2023-03-23T13:57:35;4;4;
47079;PMS5003;33067;49.296;14.470;2023-03-23T13:59:56;5;5;
47079;PMS5003;33067;49.296;14.470;2023-03-23T14:04:46;4;3;
47079;PMS5003;33067;49.296;14.470;2023-03-23T14:07:11;5;5;
47079;PMS5003;33067;49.296;14.470;2023-03-23T14:09:37;5;4;
47079;PMS5003;33067;49.296;14.470;2023-03-23T14:12:01;5;5;
47079;PMS5003;33067;49.296;14.470;2023-03-23T14:14:28;4;4;
47079;PMS5003;33067;49.296;14.470;2023-03-23T14:16:51;5;5;
47079;PMS5003;33067;49.296;14.470;2023-03-23T14:19:18;4;4;
47079;PMS5003;33067;49.296;14.470;2023-03-23T14:21:49;5;4;
47079;PMS5003;33067;49.296;14.470;2023-03-23T14:24:09;4;2;
47079;PMS5003;33067;49.296;14.470;2023-03-23T14:26:33;3;3;
47079;PMS5003;33067;49.296;14.470;2023-03-23T14:28:57;6;5;
47079;PMS5003;33067;49.296;14.470;2023-03-23T14:31:23;10;10;
47079;PMS5003;33067;49.296;14.470;2023-03-23T14:33:47;5;5;
47079;PMS5003;33067;49.296;14.470;2023-03-23T14:36:12;4;4;
47079;PMS5003;33067;49.296;14.470;2023-03-23T14:38:37;11;11;
47079;PMS5003;33067;49.296;14.470;2023-03-23T14:41:03;6;6;
47079;PMS5003;33067;49.296;14.470;2023-03-23T14:43:27;5;4;
47079;PMS5003;33067;49.296;14.470;2023-03-23T14:45:53;4;4;
47079;PMS5003;33067;49.296;14.470;2023-03-23T14:48:17;6;6;
47079;PMS5003;33067;49.296;14.470;2023-03-23T14:53:12;8;8;
47079;PMS5003;33067;49.296;14.470;2023-03-23T14:55:32;9;9;
47079;PMS5003;33067;49.296;14.470;2023-03-23T15:00:26;8;8;
47079;PMS5003;33067;49.296;14.470;2023-03-23T15:02:49;7;5;
47079;PMS5003;33067;49.296;14.470;2023-03-23T15:05:14;19;18;
47079;PMS5003;33067;49.296;14.470;2023-03-23T15:07:39;30;25;
47079;PMS5003;33067;49.296;14.470;2023-03-23T15:10:05;29;27;
47079;PMS5003;33067;49.296;14.470;2023-03-23T15:12:29;14;11;
47079;PMS5003;33067;49.296;14.470;2023-03-23T15:14:55;9;7;
47079;PMS5003;33067;49.296;14.470;2023-03-23T15:17:21;10;9;
47079;PMS5003;33067;49.296;14.470;2023-03-23T15:19:45;14;14;
47079;PMS5003;33067;49.296;14.470;2023-03-23T15:22:13;7;7;
47079;PMS5003;33067;49.296;14.470;2023-03-23T15:24:37;7;7;
47079;PMS5003;33067;49.296;14.470;2023-03-23T15:27:10;6;6;
47079;PMS5003;33067;49.296;14.470;2023-03-23T15:29:25;11;9;
47079;PMS5003;33067;49.296;14.470;2023-03-23T15:31:50;10;9;
47079;PMS5003;33067;49.296;14.470;2023-03-23T15:34:18;10;8;
47079;PMS5003;33067;49.296;14.470;2023-03-23T15:36:40;10;10;
47079;PMS5003;33067;49.296;14.470;2023-03-23T15:39:05;8;6;
47079;PMS5003;33067;49.296;14.470;2023-03-23T15:41:31;10;10;
47079;PMS5003;33067;49.296;14.470;2023-03-23T15:43:56;7;6;
47079;PMS5003;33067;49.296;14.470;2023-03-23T15:46:21;7;7;
47079;PMS5003;33067;49.296;14.470;2023-03-23T15:48:46;13;13;
47079;PMS5003;33067;49.296;14.470;2023-03-23T15:51:11;9;9;
47079;PMS5003;33067;49.296;14.470;2023-03-23T15:53:36;12;11;
47079;PMS5003;33067;49.296;14.470;2023-03-23T15:56:01;5;5;
47079;PMS5003;33067;49.296;14.470;2023-03-23T15:58:26;10;10;
47079;PMS5003;33067;49.296;14.470;2023-03-23T16:00:51;7;7;
47079;PMS5003;33067;49.296;14.470;2023-03-23T16:03:17;8;8;
47079;PMS5003;33067;49.296;14.470;2023-03-23T16:05:41;12;12;
47079;PMS5003;33067;49.296;14.470;2023-03-23T16:08:08;12;12;
47079;PMS5003;33067;49.296;14.470;2023-03-23T16:10:32;9;9;
47079;PMS5003;33067;49.296;14.470;2023-03-23T16:12:57;12;11;
47079;PMS5003;33067;49.296;14.470;2023-03-23T16:15:22;9;9;
47079;PMS5003;33067;49.296;14.470;2023-03-23T16:17:47;9;9;
47079;PMS5003;33067;49.296;14.470;2023-03-23T16:20:13;10;7;
47079;PMS5003;33067;49.296;14.470;2023-03-23T16:22:38;10;10;
47079;PMS5003;33067;49.296;14.470;2023-03-23T16:25:03;11;8;